createdAt,value
2023-03-28T00:00:54.535Z,1.30
2023-03-28T00:05:14.923Z,0.82
2023-03-28T00:09:34.120Z,1.23
2023-03-28T00:13:58.158Z,1.00
2023-03-28T00:18:17.699Z,1.55
2023-03-28T00:22:38.147Z,1.05
2023-03-28T00:27:00.555Z,1.60
2023-03-28T00:31:18.046Z,1.17
2023-03-28T00:35:36.663Z,1.00
2023-03-28T00:39:54.133Z,0.90
2023-03-28T00:44:49.676Z,1.37
2023-03-28T00:49:12.369Z,1.73
2023-03-28T00:53:33.864Z,1.60
2023-03-28T00:57:54.458Z,1.27
2023-03-28T01:02:15.052Z,1.40
2023-03-28T01:06:40.639Z,1.30
2023-03-28T01:11:02.136Z,1.38
2023-03-28T01:15:20.130Z,1.83
2023-03-28T01:20:04.270Z,1.58
2023-03-28T01:24:47.008Z,1.52
2023-03-28T01:29:46.447Z,1.40
2023-03-28T01:34:31.530Z,1.45
2023-03-28T01:38:59.633Z,1.42
2023-03-28T01:43:32.100Z,1.33
2023-03-28T01:47:58.038Z,1.95
2023-03-28T01:52:24.053Z,1.63
2023-03-28T01:56:51.032Z,1.67
2023-03-28T02:01:26.401Z,1.20
2023-03-28T02:05:50.763Z,1.50
2023-03-28T02:10:12.321Z,2.05
2023-03-28T02:14:57.271Z,1.57
2023-03-28T02:19:40.093Z,1.50
2023-03-28T02:23:59.633Z,1.08
2023-03-28T02:28:33.958Z,1.67
2023-03-28T02:33:30.247Z,1.80
2023-03-28T02:37:55.820Z,1.90
2023-03-28T02:42:41.017Z,1.80
2023-03-28T02:47:11.772Z,1.23
2023-03-28T02:51:37.019Z,1.58
2023-03-28T02:56:00.305Z,1.20
2023-03-28T03:00:37.056Z,1.67
2023-03-28T03:04:57.670Z,1.27
2023-03-28T03:09:18.728Z,1.70
2023-03-28T03:13:36.616Z,1.70
2023-03-28T03:17:54.665Z,2.00
2023-03-28T03:22:20.937Z,2.15
2023-03-28T03:26:44.418Z,1.75
2023-03-28T03:31:08.222Z,1.50
2023-03-28T03:35:53.541Z,2.05
2023-03-28T03:40:14.064Z,1.58
2023-03-28T03:44:36.818Z,1.73
2023-03-28T03:48:56.333Z,2.40
2023-03-28T03:53:14.808Z,1.73
2023-03-28T03:57:41.932Z,1.60
2023-03-28T04:02:01.885Z,1.65
2023-03-28T04:06:40.184Z,2.22
2023-03-28T04:11:00.402Z,1.80
2023-03-28T04:15:21.618Z,1.80
2023-03-28T04:19:59.997Z,1.95
2023-03-28T04:24:21.172Z,2.30
2023-03-28T04:28:49.774Z,1.60
2023-03-28T04:33:07.776Z,2.42
2023-03-28T04:37:33.501Z,2.80
2023-03-28T04:41:56.018Z,2.47
2023-03-28T04:46:32.396Z,2.00
2023-03-28T04:50:53.537Z,2.03
2023-03-28T04:55:13.257Z,2.97
2023-03-28T04:59:32.765Z,2.50
2023-03-28T05:03:50.888Z,2.38
2023-03-28T05:08:09.054Z,2.42
2023-03-28T05:12:28.207Z,2.93
2023-03-28T05:16:54.697Z,2.90
2023-03-28T05:21:37.074Z,2.50
2023-03-28T05:25:56.175Z,2.87
2023-03-28T05:30:17.698Z,2.63
2023-03-28T05:34:37.349Z,3.25
2023-03-28T05:38:55.427Z,3.20
2023-03-28T05:43:13.353Z,3.00
2023-03-28T05:48:01.582Z,3.47
2023-03-28T05:52:20.271Z,3.22
2023-03-28T05:56:38.135Z,3.30
2023-03-28T06:00:56.882Z,2.88
2023-03-28T06:05:19.739Z,3.25
2023-03-28T06:09:38.579Z,2.83
2023-03-28T06:13:56.395Z,3.10
2023-03-28T06:18:14.458Z,2.75
2023-03-28T06:22:40.466Z,2.70
2023-03-28T06:27:03.083Z,2.50
2023-03-28T06:31:24.199Z,2.90
2023-03-28T06:35:42.156Z,2.53
2023-03-28T06:40:02.196Z,3.20
2023-03-28T06:44:21.512Z,3.10
2023-03-28T06:49:13.193Z,3.45
2023-03-28T06:53:58.995Z,3.00
2023-03-28T06:58:22.161Z,2.58
2023-03-28T07:02:47.317Z,2.88
2023-03-28T07:07:05.961Z,2.20
2023-03-28T07:11:23.377Z,2.20
2023-03-28T07:15:42.963Z,2.30
2023-03-28T07:20:02.671Z,2.13
2023-03-28T07:24:20.652Z,2.60
2023-03-28T07:28:53.871Z,2.20
2023-03-28T07:33:18.910Z,2.20
2023-03-28T07:37:44.413Z,2.20
2023-03-28T07:42:40.422Z,2.22
2023-03-28T07:46:59.144Z,2.50
2023-03-28T07:51:18.523Z,1.90
2023-03-28T08:00:02.060Z,1.77
2023-03-28T08:04:20.679Z,1.95
2023-03-28T08:08:54.966Z,2.37
2023-03-28T08:13:21.652Z,2.15
2023-03-28T08:17:41.856Z,2.30
2023-03-28T08:22:02.839Z,2.43
2023-03-28T08:26:28.627Z,2.30
2023-03-28T08:30:48.753Z,2.10
2023-03-28T08:35:07.319Z,2.30
2023-03-28T08:39:27.509Z,2.20
2023-03-28T08:43:59.997Z,1.80
2023-03-28T08:48:25.707Z,1.90
2023-03-28T08:52:47.974Z,2.07
2023-03-28T08:57:09.088Z,1.55
2023-03-28T09:01:32.932Z,1.80
2023-03-28T09:05:58.124Z,2.20
2023-03-28T09:10:28.787Z,2.20
2023-03-28T09:15:26.629Z,1.90
2023-03-28T09:19:56.174Z,2.47
2023-03-28T09:24:53.882Z,1.90
2023-03-28T09:29:24.646Z,2.20
2023-03-28T09:33:47.585Z,2.08
2023-03-28T09:38:19.074Z,2.50
2023-03-28T09:42:50.860Z,1.70
2023-03-28T09:47:17.809Z,1.92
2023-03-28T09:51:42.178Z,1.70
2023-03-28T09:56:07.722Z,1.83
2023-03-28T10:00:31.226Z,1.63
2023-03-28T10:05:33.569Z,2.00
2023-03-28T10:10:20.147Z,1.60
2023-03-28T10:14:47.465Z,1.90
2023-03-28T10:19:36.035Z,2.20
2023-03-28T10:24:01.562Z,1.90
2023-03-28T10:28:29.640Z,1.80
2023-03-28T10:33:10.066Z,1.58
2023-03-28T10:37:56.360Z,2.43
2023-03-28T10:42:24.343Z,2.17
2023-03-28T10:47:12.121Z,2.13
2023-03-28T10:51:53.172Z,1.67
2023-03-28T10:56:33.486Z,1.93
2023-03-28T11:01:04.644Z,1.95
2023-03-28T11:05:42.568Z,2.00
2023-03-28T11:10:12.455Z,2.27
2023-03-28T11:14:59.815Z,2.38
2023-03-28T11:19:43.590Z,2.30
2023-03-28T11:24:20.944Z,2.40
2023-03-28T11:28:59.868Z,2.60
2023-03-28T11:33:26.181Z,2.90
2023-03-28T11:38:00.022Z,2.83
2023-03-28T11:42:21.800Z,2.60
2023-03-28T11:46:48.173Z,2.80
2023-03-28T11:51:11.865Z,2.53
2023-03-28T11:55:45.789Z,2.43
2023-03-28T12:00:32.637Z,2.15
2023-03-28T12:05:01.176Z,2.25
2023-03-28T12:09:31.962Z,2.23
2023-03-28T12:14:01.388Z,2.60
2023-03-28T12:18:33.881Z,2.85
2023-03-28T12:23:00.186Z,2.63
2023-03-28T12:27:50.864Z,2.50
2023-03-28T12:32:29.852Z,2.53
2023-03-28T12:36:56.315Z,2.80
2023-03-28T12:41:23.098Z,2.43
2023-03-28T12:45:44.231Z,2.45
2023-03-28T12:50:06.318Z,2.70
2023-03-28T12:54:29.651Z,2.57
2023-03-28T12:58:55.162Z,2.20
2023-03-28T13:03:32.439Z,1.90
2023-03-28T13:08:01.770Z,2.60
2023-03-28T13:12:41.864Z,2.40
2023-03-28T13:17:05.966Z,2.10
2023-03-28T13:21:44.663Z,2.30
2023-03-28T13:26:03.602Z,2.20
2023-03-28T13:30:26.219Z,2.13
2023-03-28T13:34:51.412Z,2.05
2023-03-28T13:39:23.525Z,2.00
2023-03-28T13:43:44.922Z,1.80
2023-03-28T13:48:13.179Z,2.50
2023-03-28T13:52:35.102Z,2.42
2023-03-28T13:56:55.113Z,2.23
2023-03-28T14:01:18.528Z,2.08
2023-03-28T14:05:43.497Z,1.90
2023-03-28T14:10:02.334Z,2.30
2023-03-28T14:14:29.966Z,1.70
2023-03-28T14:18:51.434Z,2.22
2023-03-28T14:23:28.273Z,1.93
2023-03-28T14:27:50.776Z,2.17
2023-03-28T14:32:25.898Z,1.58
2023-03-28T14:36:59.403Z,1.80
2023-03-28T14:41:21.598Z,1.70
2023-03-28T14:45:43.679Z,1.73
2023-03-28T14:50:04.600Z,2.00
2023-03-28T14:58:52.110Z,1.77
2023-03-28T15:03:15.577Z,1.70
2023-03-28T15:07:35.660Z,1.67
2023-03-28T15:11:55.158Z,2.00
2023-03-28T15:16:20.503Z,1.70
2023-03-28T15:20:44.007Z,2.67
2023-03-28T15:25:01.986Z,1.88
2023-03-28T15:29:21.749Z,2.07
2023-03-28T15:33:45.832Z,2.10
2023-03-28T15:38:08.530Z,1.73
2023-03-28T15:42:35.408Z,2.20
2023-03-28T15:46:54.884Z,2.15
2023-03-28T15:51:19.080Z,2.28
2023-03-28T15:55:42.243Z,1.83
2023-03-28T16:00:02.635Z,1.92
2023-03-28T16:04:29.952Z,1.88
2023-03-28T16:08:51.468Z,2.17
2023-03-28T16:13:14.473Z,1.80
2023-03-28T16:17:58.934Z,1.42
2023-03-28T16:22:31.340Z,1.90
2023-03-28T16:26:50.765Z,2.23
2023-03-28T16:31:15.226Z,1.80
2023-03-28T16:35:35.311Z,2.10
2023-03-28T16:39:52.732Z,1.90
2023-03-28T16:44:12.921Z,1.80
2023-03-28T16:48:33.122Z,2.25
2023-03-28T16:52:52.994Z,1.80
2023-03-28T16:57:11.376Z,1.63
2023-03-28T17:01:31.610Z,1.60
2023-03-28T17:05:51.164Z,1.95
2023-03-28T17:10:09.824Z,2.00
2023-03-28T17:14:29.620Z,2.13
2023-03-28T17:18:48.870Z,1.77
2023-03-28T17:23:08.741Z,2.07
2023-03-28T17:27:26.743Z,2.03
2023-03-28T17:31:44.857Z,2.00
2023-03-28T17:36:20.947Z,1.80
2023-03-28T17:40:49.396Z,1.63
2023-03-28T17:45:13.366Z,1.88
2023-03-28T17:49:37.343Z,1.90
2023-03-28T17:54:06.771Z,2.17
2023-03-28T17:58:37.990Z,2.33
2023-03-28T18:03:02.514Z,3.15
2023-03-28T18:07:47.527Z,2.70
2023-03-28T18:12:14.907Z,3.50
2023-03-28T18:16:40.133Z,2.60
2023-03-28T18:21:12.087Z,2.75
2023-03-28T18:25:37.282Z,2.70
2023-03-28T18:30:16.529Z,2.70
2023-03-28T18:34:41.600Z,3.38
2023-03-28T18:39:07.104Z,2.83
2023-03-28T18:43:31.673Z,3.13
2023-03-28T18:47:57.235Z,2.95
2023-03-28T18:52:21.916Z,3.63
2023-03-28T18:56:46.571Z,3.50
2023-03-28T19:01:12.634Z,4.15
2023-03-28T19:05:38.444Z,4.72
2023-03-28T19:10:02.745Z,4.47
2023-03-28T19:14:27.691Z,4.70
2023-03-28T19:18:52.946Z,4.75
2023-03-28T19:23:18.540Z,3.97
2023-03-28T19:27:43.746Z,3.17
2023-03-28T19:32:08.148Z,3.70
2023-03-28T19:36:32.151Z,3.70
2023-03-28T19:40:58.725Z,4.10
2023-03-28T19:45:16.567Z,2.70
2023-03-28T19:49:34.226Z,3.30
2023-03-28T19:53:54.140Z,2.37
2023-03-28T19:58:13.020Z,3.30
2023-03-28T20:02:32.651Z,3.47
2023-03-28T20:06:50.700Z,3.03
2023-03-28T20:11:11.598Z,3.20
2023-03-28T20:15:31.192Z,4.15
2023-03-28T20:19:51.719Z,2.07
2023-03-28T20:24:11.036Z,1.88
2023-03-28T20:28:32.084Z,1.98
2023-03-28T20:32:52.623Z,2.25
2023-03-28T20:37:14.144Z,1.97
2023-03-28T20:41:33.569Z,3.85
2023-03-28T20:45:53.895Z,3.00
2023-03-28T20:50:14.740Z,1.90
2023-03-28T20:54:34.277Z,1.77
2023-03-28T20:58:53.224Z,2.35
2023-03-28T21:03:15.664Z,3.50
2023-03-28T21:07:36.144Z,1.50
2023-03-28T21:11:55.190Z,2.15
2023-03-28T21:16:14.688Z,2.20
2023-03-28T21:20:34.485Z,2.60
2023-03-28T21:24:54.003Z,2.13
2023-03-28T21:29:13.783Z,2.20
2023-03-28T21:33:32.449Z,1.97
2023-03-28T21:37:49.623Z,2.10
2023-03-28T21:42:09.062Z,2.10
2023-03-28T21:47:00.758Z,1.80
2023-03-28T21:51:35.960Z,1.50
2023-03-28T21:55:57.134Z,2.17
2023-03-28T22:00:18.139Z,1.90
2023-03-28T22:04:37.512Z,2.07
2023-03-28T22:08:56.908Z,2.00
2023-03-28T22:13:16.519Z,2.22
2023-03-28T22:17:38.441Z,2.00
2023-03-28T22:21:56.663Z,2.05
2023-03-28T22:26:13.789Z,2.97
2023-03-28T22:30:32.885Z,2.80
2023-03-28T22:34:51.289Z,2.28
2023-03-28T22:39:10.962Z,2.45
2023-03-28T22:43:30.009Z,1.80
2023-03-28T22:47:50.226Z,2.33
2023-03-28T22:52:09.655Z,2.33
2023-03-28T22:56:29.238Z,2.85
2023-03-28T23:00:47.556Z,2.77
2023-03-28T23:05:06.663Z,1.92
2023-03-28T23:09:29.942Z,2.83
2023-03-28T23:13:47.673Z,2.37
2023-03-28T23:18:06.132Z,2.67
2023-03-28T23:22:23.801Z,2.22
2023-03-28T23:26:43.271Z,2.63
2023-03-28T23:31:03.523Z,2.03
2023-03-28T23:35:21.090Z,2.08
2023-03-28T23:39:39.286Z,1.88
2023-03-28T23:43:58.810Z,2.77
2023-03-28T23:48:22.767Z,2.47
2023-03-28T23:52:46.667Z,3.42
2023-03-28T23:57:10.700Z,3.23
